createdAt,value
2023-01-20T00:01:30.803Z,1.86
2023-01-20T00:03:59.097Z,1.95
2023-01-20T00:06:30.447Z,1.96
2023-01-20T00:09:02.436Z,1.80
2023-01-20T00:11:30.275Z,1.87
2023-01-20T00:14:00.626Z,1.82
2023-01-20T00:16:28.973Z,1.74
2023-01-20T00:18:56.438Z,1.61
2023-01-20T00:21:23.825Z,1.47
2023-01-20T00:23:50.933Z,1.40
2023-01-20T00:26:19.652Z,1.38
2023-01-20T00:28:48.092Z,1.48
2023-01-20T00:31:30.841Z,1.50
2023-01-20T00:34:00.194Z,1.55
2023-01-20T00:36:31.339Z,1.62
2023-01-20T00:38:59.397Z,1.59
2023-01-20T00:41:26.864Z,1.49
2023-01-20T00:43:54.445Z,1.47
2023-01-20T00:46:23.065Z,1.44
2023-01-20T00:48:50.594Z,1.49
2023-01-20T00:51:17.923Z,1.49
2023-01-20T00:53:45.320Z,1.69
2023-01-20T00:56:12.726Z,1.60
2023-01-20T00:58:42.179Z,1.57
2023-01-20T01:01:10.105Z,1.46
2023-01-20T01:03:37.751Z,1.49
2023-01-20T01:06:09.811Z,1.42
2023-01-20T01:08:37.287Z,1.31
2023-01-20T01:11:05.264Z,1.35
2023-01-20T01:13:32.915Z,1.35
2023-01-20T01:16:01.018Z,1.36
2023-01-20T01:18:28.631Z,1.39
2023-01-20T01:20:56.654Z,1.41
2023-01-20T01:23:24.333Z,1.45
2023-01-20T01:25:51.780Z,1.47
2023-01-20T01:28:19.091Z,1.50
2023-01-20T01:30:46.543Z,1.46
2023-01-20T01:33:14.014Z,1.48
2023-01-20T01:35:41.208Z,1.43
2023-01-20T01:38:08.484Z,1.39
2023-01-20T01:40:35.738Z,1.43
2023-01-20T01:43:03.083Z,1.44
2023-01-20T01:45:32.678Z,1.48
2023-01-20T01:48:05.771Z,1.43
2023-01-20T01:50:59.663Z,1.45
2023-01-20T01:53:30.264Z,1.46
2023-01-20T01:56:01.496Z,1.45
2023-01-20T01:58:35.080Z,1.41
2023-01-20T02:01:02.741Z,1.41
2023-01-20T02:03:40.012Z,1.40
2023-01-20T02:06:07.731Z,1.36
2023-01-20T02:08:35.421Z,1.34
2023-01-20T02:11:02.818Z,1.47
2023-01-20T02:13:30.246Z,1.36
2023-01-20T02:16:21.115Z,1.32
2023-01-20T02:19:01.577Z,1.31
2023-01-20T02:21:46.389Z,1.37
2023-01-20T02:24:22.622Z,1.41
2023-01-20T02:27:14.596Z,1.31
2023-01-20T02:29:54.110Z,1.36
2023-01-20T02:32:52.436Z,1.19
2023-01-20T02:35:26.735Z,1.21
2023-01-20T02:37:59.903Z,1.23
2023-01-20T02:40:33.425Z,1.30
2023-01-20T02:43:10.682Z,1.33
2023-01-20T02:45:47.735Z,1.34
2023-01-20T02:48:39.929Z,1.31
2023-01-20T02:51:14.528Z,1.37
2023-01-20T02:53:56.096Z,1.28
2023-01-20T02:56:26.929Z,1.22
2023-01-20T02:59:05.686Z,1.19
2023-01-20T03:01:39.981Z,1.21
2023-01-20T03:04:11.195Z,1.23
2023-01-20T03:06:44.909Z,1.15
2023-01-20T03:09:18.455Z,1.14
2023-01-20T03:11:53.715Z,1.12
2023-01-20T03:14:21.238Z,1.14
2023-01-20T03:16:50.439Z,1.13
2023-01-20T03:19:20.520Z,1.23
2023-01-20T03:21:49.105Z,1.30
2023-01-20T03:24:16.889Z,1.34
2023-01-20T03:26:44.331Z,1.36
2023-01-20T03:29:12.716Z,1.39
2023-01-20T03:31:45.127Z,1.37
2023-01-20T03:34:17.623Z,1.36
2023-01-20T03:36:45.963Z,1.38
2023-01-20T03:39:14.199Z,1.37
2023-01-20T03:42:02.851Z,1.46
2023-01-20T03:44:36.324Z,1.66
2023-01-20T03:47:28.778Z,1.80
2023-01-20T03:50:10.217Z,1.92
2023-01-20T03:52:52.783Z,1.77
2023-01-20T03:55:38.279Z,1.72
2023-01-20T03:58:10.287Z,1.63
2023-01-20T04:00:42.308Z,1.59
2023-01-20T04:03:16.755Z,1.57
2023-01-20T04:05:45.239Z,1.57
2023-01-20T04:08:15.234Z,1.60
2023-01-20T04:10:46.299Z,1.63
2023-01-20T04:13:15.111Z,1.72
2023-01-20T04:15:45.999Z,1.68
2023-01-20T04:18:23.045Z,1.70
2023-01-20T04:21:05.157Z,1.64
2023-01-20T04:23:35.247Z,1.67
2023-01-20T04:26:03.066Z,1.69
2023-01-20T04:28:30.581Z,1.72
2023-01-20T04:30:57.988Z,2.11
2023-01-20T04:33:25.536Z,2.33
2023-01-20T04:35:53.170Z,2.19
2023-01-20T04:38:21.098Z,1.97
2023-01-20T04:40:48.528Z,1.90
2023-01-20T04:43:16.139Z,1.89
2023-01-20T04:45:43.380Z,2.02
2023-01-20T04:48:10.702Z,2.02
2023-01-20T04:50:38.900Z,2.03
2023-01-20T04:53:06.371Z,2.01
2023-01-20T04:55:34.070Z,2.10
2023-01-20T04:58:01.382Z,1.98
2023-01-20T05:00:28.882Z,2.02
2023-01-20T05:02:58.314Z,1.91
2023-01-20T05:05:25.860Z,1.78
2023-01-20T05:07:54.182Z,1.82
2023-01-20T05:10:21.681Z,1.76
2023-01-20T05:12:49.227Z,1.68
2023-01-20T05:15:16.682Z,1.59
2023-01-20T05:17:44.261Z,1.57
2023-01-20T05:20:11.801Z,1.55
2023-01-20T05:22:39.409Z,1.48
2023-01-20T05:25:07.404Z,1.43
2023-01-20T05:27:35.848Z,1.40
2023-01-20T05:30:07.504Z,1.40
2023-01-20T05:32:34.999Z,1.35
2023-01-20T05:35:02.216Z,1.32
2023-01-20T05:37:29.675Z,1.45
2023-01-20T05:39:57.047Z,1.46
2023-01-20T05:42:24.402Z,1.59
2023-01-20T05:44:51.578Z,1.58
2023-01-20T05:47:18.860Z,1.43
2023-01-20T05:49:46.000Z,1.40
2023-01-20T05:52:13.231Z,1.38
2023-01-20T05:54:40.364Z,1.35
2023-01-20T05:57:07.955Z,1.20
2023-01-20T05:59:35.356Z,1.13
2023-01-20T06:02:02.655Z,1.06
2023-01-20T06:04:29.955Z,1.12
2023-01-20T06:06:57.920Z,1.09
2023-01-20T06:09:25.192Z,1.30
2023-01-20T06:11:52.720Z,1.28
2023-01-20T06:14:20.063Z,1.30
2023-01-20T06:16:47.441Z,1.28
2023-01-20T06:19:14.650Z,1.36
2023-01-20T06:21:42.170Z,1.35
2023-01-20T06:24:09.503Z,1.21
2023-01-20T06:26:36.780Z,1.13
2023-01-20T06:29:04.023Z,1.08
2023-01-20T06:31:31.287Z,1.08
2023-01-20T06:33:58.514Z,1.12
2023-01-20T06:36:26.004Z,1.14
2023-01-20T06:38:53.867Z,1.16
2023-01-20T06:41:21.573Z,1.27
2023-01-20T06:43:50.343Z,1.21
2023-01-20T06:46:18.217Z,1.25
2023-01-20T06:48:46.444Z,1.22
2023-01-20T06:51:19.325Z,1.23
2023-01-20T06:53:47.912Z,1.27
2023-01-20T06:56:16.447Z,1.49
2023-01-20T06:58:44.929Z,1.75
2023-01-20T07:01:25.078Z,1.53
2023-01-20T07:03:53.412Z,1.51
2023-01-20T07:06:26.945Z,1.46
2023-01-20T07:08:55.555Z,1.68
2023-01-20T07:11:24.079Z,1.73
2023-01-20T07:13:51.419Z,1.79
2023-01-20T07:16:18.956Z,1.82
2023-01-20T07:18:51.600Z,1.85
2023-01-20T07:21:19.541Z,1.86
2023-01-20T07:23:48.347Z,1.84
2023-01-20T07:26:19.367Z,1.87
2023-01-20T07:28:47.424Z,1.90
2023-01-20T07:31:19.176Z,2.00
2023-01-20T07:33:46.888Z,2.01
2023-01-20T07:36:15.857Z,2.01
2023-01-20T07:38:43.641Z,2.10
2023-01-20T07:41:16.145Z,2.11
2023-01-20T07:44:05.272Z,2.17
2023-01-20T07:46:32.784Z,2.20
2023-01-20T07:49:00.077Z,2.16
2023-01-20T07:51:27.402Z,2.13
2023-01-20T07:53:54.600Z,2.08
2023-01-20T07:56:30.172Z,2.09
2023-01-20T07:58:59.642Z,2.19
2023-01-20T08:01:37.154Z,2.20
2023-01-20T08:04:05.313Z,2.18
2023-01-20T08:07:00.597Z,2.14
2023-01-20T08:09:28.352Z,2.11
2023-01-20T08:11:55.844Z,2.08
2023-01-20T08:14:23.383Z,2.06
2023-01-20T08:16:50.737Z,1.97
2023-01-20T08:19:18.188Z,1.96
2023-01-20T08:21:45.551Z,1.96
2023-01-20T08:24:12.842Z,1.99
2023-01-20T08:26:40.030Z,1.98
2023-01-20T08:29:08.837Z,2.03
2023-01-20T08:31:37.100Z,2.29
2023-01-20T08:34:05.620Z,3.44
2023-01-20T08:36:36.373Z,4.74
2023-01-20T08:39:05.743Z,5.93
2023-01-20T08:41:37.077Z,7.12
2023-01-20T08:44:08.040Z,7.92
2023-01-20T08:46:39.870Z,8.28
2023-01-20T08:49:11.596Z,8.32
2023-01-20T08:51:41.318Z,8.26
2023-01-20T08:54:09.472Z,8.18
2023-01-20T08:56:37.008Z,8.10
2023-01-20T08:59:05.309Z,8.02
2023-01-20T09:01:36.283Z,7.92
2023-01-20T09:04:07.098Z,7.85
2023-01-20T09:06:46.837Z,7.94
2023-01-20T09:09:15.697Z,8.07
2023-01-20T09:11:51.022Z,8.22
2023-01-20T09:14:23.979Z,8.54
2023-01-20T09:16:51.934Z,9.01
2023-01-20T09:19:19.675Z,9.32
2023-01-20T09:21:47.168Z,9.55
2023-01-20T09:24:14.962Z,9.43
2023-01-20T09:26:42.619Z,9.06
2023-01-20T09:29:13.219Z,8.60
2023-01-20T09:31:46.193Z,8.18
2023-01-20T09:34:19.653Z,7.70
2023-01-20T09:36:55.955Z,7.33
2023-01-20T09:40:02.008Z,6.89
2023-01-20T09:43:05.218Z,6.39
2023-01-20T09:45:38.744Z,6.08
2023-01-20T09:49:03.822Z,5.81
2023-01-20T09:52:26.192Z,5.65
2023-01-20T09:55:23.796Z,5.55
2023-01-20T09:57:59.402Z,5.40
2023-01-20T10:00:32.170Z,5.31
2023-01-20T10:03:11.954Z,5.31
2023-01-20T10:05:40.498Z,5.30
2023-01-20T10:08:13.346Z,5.31
2023-01-20T10:11:05.064Z,5.31
2023-01-20T10:13:49.625Z,5.33
2023-01-20T10:16:27.907Z,5.28
2023-01-20T10:19:05.279Z,5.30
2023-01-20T10:21:42.126Z,5.28
2023-01-20T10:24:23.919Z,5.32
2023-01-20T10:27:02.419Z,5.38
2023-01-20T10:29:41.774Z,5.41
2023-01-20T10:32:36.852Z,5.39
2023-01-20T10:35:16.699Z,5.43
2023-01-20T10:37:44.290Z,5.43
2023-01-20T10:40:14.718Z,5.49
2023-01-20T10:42:48.747Z,5.47
2023-01-20T10:45:28.313Z,5.49
2023-01-20T10:48:30.572Z,5.53
2023-01-20T10:51:19.653Z,5.56
2023-01-20T10:53:58.044Z,5.57
2023-01-20T10:56:54.081Z,5.60
2023-01-20T10:59:41.892Z,5.66
2023-01-20T11:02:34.883Z,5.77
2023-01-20T11:05:15.572Z,5.72
2023-01-20T11:07:45.071Z,5.39
2023-01-20T11:10:26.739Z,5.36
2023-01-20T11:13:00.168Z,5.15
2023-01-20T11:15:55.402Z,5.10
2023-01-20T11:18:27.748Z,5.07
2023-01-20T11:21:08.675Z,5.14
2023-01-20T11:23:37.092Z,5.14
2023-01-20T11:26:12.508Z,5.16
2023-01-20T11:28:54.337Z,5.22
2023-01-20T11:31:35.011Z,5.31
2023-01-20T11:34:18.176Z,5.34
2023-01-20T11:36:46.328Z,5.41
2023-01-20T11:39:35.221Z,5.45
2023-01-20T11:42:16.809Z,5.53
2023-01-20T11:44:48.083Z,5.60
2023-01-20T11:47:31.069Z,5.63
2023-01-20T11:50:04.530Z,5.75
2023-01-20T11:52:35.923Z,5.75
2023-01-20T11:55:25.911Z,5.81
2023-01-20T11:57:56.959Z,5.84
2023-01-20T12:00:37.342Z,5.90
2023-01-20T12:03:10.737Z,5.96
2023-01-20T12:05:48.508Z,6.02
2023-01-20T12:08:32.740Z,6.06
2023-01-20T12:11:05.152Z,6.19
2023-01-20T12:13:58.833Z,6.23
2023-01-20T12:16:30.563Z,6.36
2023-01-20T13:03:42.051Z,7.62
2023-01-20T13:06:31.191Z,7.65
2023-01-20T13:09:25.396Z,7.69
2023-01-20T13:12:14.579Z,7.66
2023-01-20T13:15:21.020Z,7.64
2023-01-20T13:18:28.061Z,7.71
2023-01-20T13:20:55.891Z,7.76
2023-01-20T13:23:34.488Z,7.80
2023-01-20T13:26:05.065Z,7.80
2023-01-20T13:28:33.290Z,7.79
2023-01-20T13:31:21.529Z,7.77
2023-01-20T13:33:49.291Z,7.67
2023-01-20T13:36:22.074Z,7.66
2023-01-20T13:39:10.814Z,7.67
2023-01-20T13:41:52.632Z,7.62
2023-01-20T13:44:42.301Z,7.64
2023-01-20T13:47:11.450Z,7.68
2023-01-20T13:49:49.852Z,7.72
2023-01-20T13:52:52.259Z,7.71
2023-01-20T13:55:45.074Z,7.74
2023-01-20T13:58:19.497Z,7.83
2023-01-20T14:00:51.152Z,7.89
2023-01-20T14:03:23.279Z,7.91
2023-01-20T14:05:53.500Z,7.93
2023-01-20T14:08:22.690Z,8.00
2023-01-20T14:10:50.694Z,8.06
2023-01-20T14:13:23.456Z,8.14
2023-01-20T14:15:56.453Z,8.21
2023-01-20T14:18:28.467Z,8.31
2023-01-20T14:21:15.992Z,8.36
2023-01-20T14:23:46.345Z,8.44
2023-01-20T14:26:34.279Z,8.54
2023-01-20T14:29:05.148Z,8.66
2023-01-20T14:31:45.863Z,8.81
2023-01-20T14:34:28.925Z,8.81
2023-01-20T14:36:59.834Z,8.72
2023-01-20T14:39:29.399Z,8.63
2023-01-20T14:42:01.313Z,8.48
2023-01-20T14:44:35.133Z,8.40
2023-01-20T14:47:05.422Z,8.35
2023-01-20T14:49:36.504Z,8.32
2023-01-20T14:52:07.968Z,8.28
2023-01-20T14:54:43.775Z,8.25
2023-01-20T14:57:26.389Z,8.21
2023-01-20T15:00:05.478Z,8.24
2023-01-20T15:02:36.079Z,8.21
2023-01-20T15:05:21.699Z,8.17
2023-01-20T15:07:49.679Z,8.23
2023-01-20T15:10:18.592Z,8.17
2023-01-20T15:12:46.183Z,8.18
2023-01-20T15:15:32.622Z,8.17
2023-01-20T15:18:17.105Z,8.26
2023-01-20T15:21:03.836Z,8.17
2023-01-20T15:23:41.422Z,8.12
2023-01-20T15:26:21.857Z,8.14
2023-01-20T15:28:49.584Z,8.09
2023-01-20T15:31:18.200Z,8.10
2023-01-20T15:33:45.961Z,8.07
2023-01-20T15:36:24.653Z,8.05
2023-01-20T15:38:52.514Z,8.03
2023-01-20T15:41:20.738Z,8.19
2023-01-20T15:43:49.464Z,8.15
2023-01-20T15:46:17.975Z,8.13
2023-01-20T15:48:46.111Z,7.95
2023-01-20T15:51:18.776Z,7.87
2023-01-20T15:53:47.120Z,7.68
2023-01-20T15:56:24.360Z,7.62
2023-01-20T15:58:52.406Z,7.60
2023-01-20T16:01:25.725Z,7.60
2023-01-20T16:03:55.097Z,7.52
2023-01-20T16:06:35.880Z,7.61
2023-01-20T16:09:27.528Z,7.58
2023-01-20T16:11:55.629Z,7.62
2023-01-20T16:14:23.087Z,7.70
2023-01-20T16:16:50.611Z,7.74
2023-01-20T16:19:17.940Z,7.73
2023-01-20T16:21:45.821Z,7.70
2023-01-20T16:24:13.532Z,7.62
2023-01-20T16:26:46.083Z,7.52
2023-01-20T16:29:13.748Z,7.43
2023-01-20T16:31:41.229Z,7.33
2023-01-20T16:34:08.765Z,7.14
2023-01-20T16:36:36.240Z,7.00
2023-01-20T16:39:03.719Z,6.92
2023-01-20T16:41:31.195Z,6.88
2023-01-20T16:43:58.912Z,6.82
2023-01-20T16:46:29.714Z,6.73
2023-01-20T16:48:59.804Z,6.65
2023-01-20T16:51:29.118Z,6.59
2023-01-20T16:53:57.549Z,6.56
2023-01-20T16:56:30.402Z,6.50
2023-01-20T16:59:03.261Z,6.48
2023-01-20T17:01:30.875Z,6.37
2023-01-20T17:04:00.904Z,6.30
2023-01-20T17:06:31.787Z,6.29
2023-01-20T17:09:01.332Z,6.25
2023-01-20T17:11:34.963Z,6.20
2023-01-20T17:14:05.254Z,6.16
2023-01-20T17:16:33.503Z,6.13
2023-01-20T17:19:02.049Z,6.09
2023-01-20T17:21:31.294Z,6.06
2023-01-20T17:24:04.245Z,6.07
2023-01-20T17:26:32.216Z,6.09
2023-01-20T17:29:03.061Z,6.01
2023-01-20T17:31:34.574Z,5.90
2023-01-20T17:34:06.218Z,5.79
2023-01-20T17:36:34.929Z,5.72
2023-01-20T17:39:03.708Z,5.65
2023-01-20T17:41:31.805Z,5.61
2023-01-20T17:43:59.393Z,5.61
2023-01-20T17:46:29.179Z,5.55
2023-01-20T17:48:57.951Z,5.53
2023-01-20T17:51:28.104Z,5.50
2023-01-20T17:53:58.024Z,5.46
2023-01-20T17:56:25.794Z,5.39
2023-01-20T17:58:54.099Z,5.34
2023-01-20T18:01:27.313Z,5.28
2023-01-20T18:03:58.269Z,5.19
2023-01-20T18:06:27.373Z,5.16
2023-01-20T18:09:00.564Z,5.14
2023-01-20T18:11:30.970Z,5.13
2023-01-20T18:14:00.402Z,5.16
2023-01-20T18:16:36.259Z,5.19
2023-01-20T18:19:04.725Z,5.18
2023-01-20T18:21:35.258Z,5.14
2023-01-20T18:24:04.698Z,5.21
2023-01-20T18:26:34.180Z,5.30
2023-01-20T18:29:04.888Z,5.41
2023-01-20T18:31:33.568Z,5.33
2023-01-20T18:34:05.101Z,5.33
2023-01-20T18:36:38.982Z,5.30
2023-01-20T18:39:18.735Z,5.29
2023-01-20T18:41:46.623Z,5.19
2023-01-20T18:44:14.377Z,5.08
2023-01-20T18:46:42.357Z,5.25
2023-01-20T18:49:13.753Z,5.17
2023-01-20T18:51:42.411Z,5.08
2023-01-20T18:54:18.217Z,5.02
2023-01-20T18:56:45.663Z,4.94
2023-01-20T18:59:13.640Z,4.85
2023-01-20T19:01:42.217Z,4.86
2023-01-20T19:04:12.106Z,4.82
2023-01-20T19:06:42.051Z,4.79
2023-01-20T19:09:10.175Z,4.75
2023-01-20T19:11:41.188Z,4.72
2023-01-20T19:14:11.931Z,4.65
2023-01-20T19:16:42.348Z,4.53
2023-01-20T19:19:10.824Z,4.40
2023-01-20T19:21:38.373Z,4.29
2023-01-20T19:24:07.646Z,4.24
2023-01-20T19:26:37.493Z,4.16
2023-01-20T19:29:07.530Z,4.05
2023-01-20T19:31:38.474Z,4.05
2023-01-20T19:34:07.639Z,4.08
2023-01-20T19:36:35.886Z,4.03
2023-01-20T19:39:04.118Z,4.13
2023-01-20T19:41:34.384Z,4.23
2023-01-20T19:44:04.670Z,4.24
2023-01-20T19:46:34.301Z,4.30
2023-01-20T19:49:02.629Z,4.35
2023-01-20T19:51:31.682Z,4.43
2023-01-20T19:54:01.498Z,4.40
2023-01-20T19:56:31.873Z,4.39
2023-01-20T19:59:00.931Z,4.38
2023-01-20T20:01:31.792Z,4.48
2023-01-20T20:04:00.173Z,4.56
2023-01-20T20:06:31.847Z,4.49
2023-01-20T20:09:02.108Z,4.29
2023-01-20T20:11:32.599Z,4.09
2023-01-20T20:14:01.777Z,3.98
2023-01-20T20:16:31.379Z,3.89
2023-01-20T20:18:59.696Z,3.83
2023-01-20T20:21:30.322Z,3.76
2023-01-20T20:23:59.787Z,3.76
2023-01-20T20:26:31.115Z,3.69
2023-01-20T20:29:00.023Z,3.64
2023-01-20T20:31:29.517Z,3.56
2023-01-20T20:33:59.117Z,3.54
2023-01-20T20:36:31.269Z,3.52
2023-01-20T20:39:01.299Z,3.48
2023-01-20T20:41:31.635Z,3.41
2023-01-20T20:44:01.250Z,3.36
2023-01-20T20:46:29.679Z,3.34
2023-01-20T20:48:59.748Z,3.30
2023-01-20T20:51:29.472Z,3.25
2023-01-20T20:53:58.481Z,3.19
2023-01-20T20:56:32.995Z,3.17
2023-01-20T20:59:03.336Z,3.12
2023-01-20T21:01:34.272Z,3.12
2023-01-20T21:04:03.435Z,3.10
2023-01-20T21:06:32.040Z,3.08
2023-01-20T21:09:00.293Z,3.07
2023-01-20T21:11:28.019Z,3.06
2023-01-20T21:13:55.934Z,3.01
2023-01-20T21:16:24.486Z,2.97
2023-01-20T21:18:53.807Z,2.96
2023-01-20T21:21:22.677Z,3.06
2023-01-20T21:23:54.793Z,3.16
2023-01-20T21:26:24.028Z,3.16
2023-01-20T21:28:51.993Z,3.09
2023-01-20T21:31:26.168Z,3.19
2023-01-20T21:33:55.479Z,3.24
2023-01-20T21:36:23.282Z,3.21
2023-01-20T21:38:51.550Z,3.33
2023-01-20T21:41:19.837Z,3.35
2023-01-20T21:44:06.854Z,3.28
2023-01-20T21:46:39.498Z,3.07
2023-01-20T21:49:27.324Z,2.94
2023-01-20T21:52:14.115Z,2.88
2023-01-20T21:54:41.988Z,2.76
2023-01-20T21:57:09.729Z,2.72
2023-01-20T21:59:37.497Z,2.73
2023-01-20T22:02:05.418Z,2.72
2023-01-20T22:04:33.210Z,2.73
2023-01-20T22:07:00.646Z,2.84
2023-01-20T22:09:28.272Z,2.83
2023-01-20T22:11:55.559Z,2.81
2023-01-20T22:14:23.249Z,2.80
2023-01-20T22:16:50.865Z,2.76
2023-01-20T22:19:18.383Z,2.74
2023-01-20T22:21:45.587Z,2.75
2023-01-20T22:24:13.047Z,2.87
2023-01-20T22:26:40.495Z,2.84
2023-01-20T22:29:08.280Z,2.91
2023-01-20T22:31:35.734Z,2.95
2023-01-20T22:34:05.285Z,2.99
2023-01-20T22:36:33.844Z,2.99
2023-01-20T22:39:02.092Z,2.96
2023-01-20T22:41:29.907Z,2.93
2023-01-20T22:43:57.887Z,2.94
2023-01-20T22:46:28.159Z,2.93
2023-01-20T22:48:59.686Z,2.89
2023-01-20T22:51:28.915Z,3.09
2023-01-20T22:53:58.750Z,3.11
2023-01-20T22:56:31.588Z,3.12
2023-01-20T22:59:00.127Z,3.18
2023-01-20T23:01:32.728Z,3.33
2023-01-20T23:04:02.838Z,3.68
2023-01-20T23:06:33.509Z,3.78
2023-01-20T23:09:04.252Z,3.71
2023-01-20T23:11:31.996Z,3.65
2023-01-20T23:14:00.420Z,3.81
2023-01-20T23:16:28.293Z,3.97
2023-01-20T23:18:56.047Z,3.79
2023-01-20T23:21:24.533Z,3.78
2023-01-20T23:23:54.809Z,3.81
2023-01-20T23:26:24.981Z,3.78
2023-01-20T23:28:54.065Z,3.76
2023-01-20T23:31:23.564Z,3.78
2023-01-20T23:33:53.127Z,3.92
2023-01-20T23:36:24.682Z,4.02
2023-01-20T23:38:56.203Z,4.05
2023-01-20T23:41:24.850Z,4.04
2023-01-20T23:43:52.462Z,4.06
2023-01-20T23:46:20.271Z,4.12
2023-01-20T23:48:47.805Z,4.16
2023-01-20T23:51:15.556Z,4.11
2023-01-20T23:53:43.439Z,4.21
2023-01-20T23:56:16.739Z,4.17
2023-01-20T23:58:44.501Z,4.06
